Time;durP1;ratioP1;P1;durP2;ratioP2;P2;SDS_P1;SDS_P2;PMS_P1;PMS_P2;Temp;Humidity;BMP_temperature;BMP_pressure;BME280_temperature;BME280_humidity;BME280_pressure;Samples;Min_cycle;Max_cycle;Signal;HPM_P1;HPM_P2
2023/06/09 00:02:07;;;;;;;4.90;4.60;;;27.20;56.00;;;;;;5071463;28;20553;-65
2023/06/09 00:04:36;;;;;;;5.50;5.10;;;27.20;56.00;;;;;;5069048;28;20458;-66
2023/06/09 00:07:05;;;;;;;5.80;5.40;;;27.20;56.00;;;;;;5069963;28;20516;-65
2023/06/09 00:09:35;;;;;;;4.97;4.67;;;27.20;56.00;;;;;;5070935;28;20889;-65
2023/06/09 00:12:04;;;;;;;5.23;4.90;;;27.20;55.90;;;;;;5072800;28;20526;-65
2023/06/09 00:14:33;;;;;;;5.37;4.97;;;27.10;55.80;;;;;;5069508;28;20455;-65
2023/06/09 00:17:01;;;;;;;5.67;5.30;;;27.00;55.80;;;;;;5073105;28;20435;-64
2023/06/09 00:19:32;;;;;;;5.27;4.83;;;27.00;55.70;;;;;;5068381;28;20481;-66
2023/06/09 00:22:01;;;;;;;5.37;4.87;;;27.00;55.70;;;;;;5067103;28;20451;-64
2023/06/09 00:24:29;;;;;;;6.00;5.50;;;27.00;55.70;;;;;;5068767;28;20462;-64
2023/06/09 00:26:59;;;;;;;5.03;4.67;;;27.00;55.70;;;;;;5072486;28;20454;-64
2023/06/09 00:29:27;;;;;;;4.60;4.30;;;26.90;55.70;;;;;;5071076;28;20930;-66
2023/06/09 00:31:55;;;;;;;5.07;4.67;;;26.90;55.70;;;;;;5069236;28;20475;-65
2023/06/09 00:34:24;;;;;;;5.40;5.00;;;26.90;55.70;;;;;;5069515;28;20485;-65
2023/06/09 00:36:53;;;;;;;5.57;5.17;;;26.90;55.70;;;;;;5069216;28;20462;-64
2023/06/09 00:39:21;;;;;;;5.33;4.97;;;26.90;55.70;;;;;;5068933;28;20465;-65
2023/06/09 00:41:49;;;;;;;5.50;5.20;;;26.90;55.80;;;;;;5071048;28;20455;-64
2023/06/09 00:44:19;;;;;;;4.83;4.53;;;26.90;55.80;;;;;;5068113;28;20525;-64
2023/06/09 00:46:47;;;;;;;5.60;5.20;;;26.90;55.80;;;;;;5070482;28;20470;-65
2023/06/09 00:49:15;;;;;;;5.20;4.90;;;26.90;55.90;;;;;;5067566;28;20516;-65
2023/06/09 00:51:44;;;;;;;5.10;4.77;;;26.80;55.90;;;;;;5060207;28;20458;-66
2023/06/09 00:54:12;;;;;;;5.20;4.80;;;26.80;55.90;;;;;;5060528;28;20474;-65
2023/06/09 00:56:41;;;;;;;5.57;5.20;;;26.80;55.90;;;;;;5070920;28;20606;-66
2023/06/09 00:59:14;;;;;;;5.40;5.00;;;26.80;55.90;;;;;;5070287;28;20497;-65
2023/06/09 01:01:44;;;;;;;4.90;4.60;;;26.80;55.90;;;;;;5070623;28;20811;-64
2023/06/09 01:04:13;;;;;;;5.60;5.20;;;26.80;55.90;;;;;;5063051;28;20528;-64
2023/06/09 01:06:56;;;;;;;5.90;5.40;;;26.80;55.90;;;;;;5062053;28;20466;-64
2023/06/09 01:09:29;;;;;;;5.20;4.80;;;26.80;55.90;;;;;;5068113;28;20549;-64
2023/06/09 01:12:08;;;;;;;4.97;4.57;;;26.80;55.90;;;;;;5059221;28;20526;-65
2023/06/09 01:14:45;;;;;;;5.13;4.73;;;26.80;55.90;;;;;;5059343;28;20446;-64
2023/06/09 01:17:18;;;;;;;5.33;4.90;;;26.70;55.90;;;;;;5068509;28;20882;-64
2023/06/09 01:19:50;;;;;;;5.30;4.90;;;26.70;55.90;;;;;;5070133;28;20532;-64
2023/06/09 01:22:29;;;;;;;5.70;5.30;;;26.70;55.90;;;;;;5068430;28;20461;-64
2023/06/09 01:25:06;;;;;;;4.70;4.40;;;26.70;55.90;;;;;;5093997;28;20446;-64
2023/06/09 01:27:39;;;;;;;5.23;4.83;;;26.70;56.00;;;;;;5070183;28;21235;-64
2023/06/09 01:30:10;;;;;;;6.03;5.63;;;26.70;56.00;;;;;;5069894;28;20941;-64
2023/06/09 01:32:40;;;;;;;5.47;4.97;;;26.70;56.00;;;;;;5070863;28;20442;-64
2023/06/09 01:35:10;;;;;;;5.90;5.40;;;26.70;56.00;;;;;;5071171;28;20521;-65
2023/06/09 01:37:40;;;;;;;5.77;5.37;;;26.70;56.00;;;;;;5069720;28;21310;-64
2023/06/09 01:40:10;;;;;;;5.90;5.50;;;26.70;56.00;;;;;;5070230;28;20478;-64
2023/06/09 01:42:39;;;;;;;6.43;5.93;;;26.70;56.00;;;;;;5065600;28;20459;-66
2023/06/09 01:45:08;;;;;;;5.50;5.10;;;26.70;56.00;;;;;;5067372;28;20461;-65
2023/06/09 01:47:38;;;;;;;5.70;5.30;;;26.60;56.10;;;;;;5070020;28;20810;-65
2023/06/09 01:50:12;;;;;;;5.50;5.10;;;26.60;56.10;;;;;;5071918;28;20446;-64
2023/06/09 01:52:45;;;;;;;5.50;5.10;;;26.60;56.10;;;;;;5069478;28;20498;-65
2023/06/09 01:55:19;;;;;;;5.23;4.90;;;26.60;56.10;;;;;;5069687;28;20457;-64
2023/06/09 01:57:53;;;;;;;5.50;5.00;;;26.60;56.10;;;;;;5070897;28;20444;-64
2023/06/09 02:00:25;;;;;;;5.43;5.13;;;26.60;56.20;;;;;;5069341;28;20477;-65
2023/06/09 02:02:55;;;;;;;5.17;4.73;;;26.60;56.10;;;;;;5067989;28;20462;-64
2023/06/09 02:05:24;;;;;;;6.77;6.27;;;26.60;56.10;;;;;;5053549;28;20476;-65
2023/06/09 02:07:53;;;;;;;5.33;4.93;;;26.60;56.10;;;;;;5060790;28;20471;-64
2023/06/09 02:10:24;;;;;;;5.67;5.17;;;26.60;56.00;;;;;;5069308;28;20470;-64
2023/06/09 02:12:54;;;;;;;5.70;5.30;;;26.60;56.00;;;;;;5052069;28;20461;-64
2023/06/09 02:15:23;;;;;;;6.10;5.53;;;26.60;56.00;;;;;;5069532;28;20465;-64
2023/06/09 02:17:51;;;;;;;5.73;5.23;;;26.60;56.00;;;;;;5070376;28;20792;-64
2023/06/09 02:20:19;;;;;;;6.10;5.70;;;26.60;56.00;;;;;;5068977;28;20433;-65
2023/06/09 02:22:47;;;;;;;5.70;5.30;;;26.50;56.00;;;;;;5064190;28;20470;-65
2023/06/09 02:25:16;;;;;;;5.77;5.37;;;26.50;56.00;;;;;;5071168;28;20458;-65
2023/06/09 02:27:45;;;;;;;5.60;5.20;;;26.50;56.00;;;;;;5070033;28;20457;-64
2023/06/09 02:30:15;;;;;;;5.20;4.90;;;26.50;56.00;;;;;;5072120;28;20534;-64
2023/06/09 02:32:43;;;;;;;5.73;5.33;;;26.50;56.00;;;;;;5075164;28;20532;-64
2023/06/09 02:35:11;;;;;;;5.07;4.67;;;26.50;55.90;;;;;;5055055;28;20478;-64
2023/06/09 02:37:41;;;;;;;5.13;4.77;;;26.50;55.90;;;;;;5054834;28;20875;-65
2023/06/09 02:40:12;;;;;;;5.83;5.20;;;26.50;55.90;;;;;;5070257;28;20493;-65
2023/06/09 02:42:40;;;;;;;5.40;5.00;;;26.50;55.90;;;;;;5072690;28;20473;-64
2023/06/09 02:45:10;;;;;;;5.20;4.90;;;26.50;55.90;;;;;;5074225;28;20433;-64
2023/06/09 02:47:40;;;;;;;5.70;5.30;;;26.40;55.90;;;;;;5068728;28;20455;-65
2023/06/09 02:50:09;;;;;;;5.17;4.67;;;26.40;55.90;;;;;;5073207;28;20480;-64
2023/06/09 02:52:39;;;;;;;5.10;4.70;;;26.40;55.90;;;;;;5073306;28;20480;-64
2023/06/09 02:55:08;;;;;;;5.60;5.20;;;26.40;55.90;;;;;;5073484;28;20457;-65
2023/06/09 02:57:40;;;;;;;4.80;4.50;;;26.40;55.90;;;;;;5072427;28;20469;-65
2023/06/09 03:00:09;;;;;;;6.47;5.97;;;26.40;55.90;;;;;;5067429;28;20467;-64
2023/06/09 03:02:41;;;;;;;6.00;5.53;;;26.40;55.90;;;;;;5072907;28;20479;-64
2023/06/09 03:05:10;;;;;;;5.07;4.77;;;26.40;55.90;;;;;;5072568;28;20501;-65
2023/06/09 03:07:39;;;;;;;6.17;5.60;;;26.40;55.90;;;;;;5073565;28;20462;-65
2023/06/09 03:10:09;;;;;;;5.30;4.90;;;26.40;55.90;;;;;;5072156;28;20491;-64
2023/06/09 03:12:41;;;;;;;5.60;5.20;;;26.40;55.80;;;;;;5070805;28;20465;-64
2023/06/09 03:15:10;;;;;;;5.27;4.87;;;26.40;55.80;;;;;;5069586;28;20493;-65
2023/06/09 03:17:41;;;;;;;5.07;4.77;;;26.40;55.80;;;;;;5073152;28;20910;-65
2023/06/09 03:20:14;;;;;;;5.70;5.20;;;26.40;55.80;;;;;;5072440;28;20465;-65
2023/06/09 03:22:45;;;;;;;5.27;4.87;;;26.40;55.80;;;;;;5071526;28;20501;-66
2023/06/09 03:25:15;;;;;;;5.07;4.67;;;26.30;55.80;;;;;;5071153;28;20488;-64
2023/06/09 03:27:44;;;;;;;5.60;5.20;;;26.30;55.80;;;;;;5072116;28;20461;-64
2023/06/09 03:30:13;;;;;;;5.27;4.90;;;26.30;55.80;;;;;;5071315;28;20449;-64
2023/06/09 03:32:46;;;;;;;5.73;5.33;;;26.30;55.80;;;;;;5063905;28;20515;-64
2023/06/09 03:35:15;;;;;;;5.43;4.93;;;26.30;55.80;;;;;;5072171;28;20473;-64
2023/06/09 03:37:43;;;;;;;5.80;5.40;;;26.30;55.80;;;;;;5072977;28;20539;-64
2023/06/09 03:40:12;;;;;;;5.07;4.73;;;26.30;55.80;;;;;;5071672;28;20509;-64
2023/06/09 03:42:41;;;;;;;5.00;4.50;;;26.30;55.80;;;;;;5072838;28;20829;-64
2023/06/09 03:45:10;;;;;;;5.00;4.70;;;26.30;55.80;;;;;;5070037;28;20449;-64
2023/06/09 03:47:38;;;;;;;5.17;4.80;;;26.30;55.80;;;;;;5062359;28;20502;-64
2023/06/09 03:50:11;;;;;;;4.97;4.57;;;26.30;55.80;;;;;;5067112;28;20480;-64
2023/06/09 03:52:39;;;;;;;5.17;4.67;;;26.30;55.80;;;;;;5072247;28;20930;-65
2023/06/09 03:55:09;;;;;;;5.50;5.10;;;26.30;55.80;;;;;;5071930;28;20559;-64
2023/06/09 03:57:38;;;;;;;5.47;5.07;;;26.30;55.80;;;;;;5071770;28;20461;-64
2023/06/09 04:00:09;;;;;;;5.40;5.00;;;26.30;55.80;;;;;;5071079;28;20564;-64
2023/06/09 04:02:43;;;;;;;5.10;4.80;;;26.30;55.70;;;;;;5069843;28;20526;-64
2023/06/09 04:05:16;;;;;;;5.17;4.77;;;26.30;55.80;;;;;;5071897;28;21022;-65
2023/06/09 04:07:46;;;;;;;5.33;4.93;;;26.30;55.70;;;;;;5071559;28;20473;-65
2023/06/09 04:10:14;;;;;;;5.30;4.90;;;26.30;55.70;;;;;;5055258;28;20525;-64
2023/06/09 04:12:42;;;;;;;4.63;4.33;;;26.30;55.70;;;;;;5053346;28;20541;-64
2023/06/09 04:15:12;;;;;;;5.77;5.37;;;26.30;55.70;;;;;;5084637;28;20551;-64
2023/06/09 04:17:43;;;;;;;6.10;5.70;;;26.30;55.70;;;;;;5089201;28;20544;-64
2023/06/09 04:20:12;;;;;;;4.97;4.57;;;26.30;55.70;;;;;;5065015;28;20498;-65
2023/06/09 04:22:49;;;;;;;5.17;4.77;;;26.30;55.70;;;;;;5068286;28;20479;-65
2023/06/09 04:25:25;;;;;;;4.80;4.50;;;26.30;55.70;;;;;;5070916;28;20551;-65
2023/06/09 04:28:00;;;;;;;5.27;4.87;;;26.30;55.70;;;;;;5071723;28;20874;-65
2023/06/09 04:30:30;;;;;;;5.90;5.50;;;26.30;55.70;;;;;;5069967;28;20462;-65
2023/06/09 04:33:01;;;;;;;5.73;5.33;;;26.30;55.60;;;;;;5070888;28;21007;-65
2023/06/09 04:35:31;;;;;;;5.07;4.77;;;26.30;55.70;;;;;;5071302;28;20487;-65
2023/06/09 04:38:01;;;;;;;5.30;4.90;;;26.30;55.70;;;;;;5071870;28;20463;-65
2023/06/09 04:40:32;;;;;;;5.20;4.80;;;26.30;55.60;;;;;;5072233;28;20446;-65
2023/06/09 04:43:03;;;;;;;5.50;5.00;;;26.30;55.60;;;;;;5069801;28;20484;-65
2023/06/09 04:45:34;;;;;;;5.43;4.93;;;26.30;55.60;;;;;;5069855;28;20814;-65
2023/06/09 04:48:12;;;;;;;5.63;5.23;;;26.30;55.60;;;;;;5071524;28;20447;-64
2023/06/09 04:50:44;;;;;;;4.40;4.20;;;26.30;55.60;;;;;;5071310;28;20453;-64
2023/06/09 04:53:15;;;;;;;5.10;4.73;;;26.20;55.60;;;;;;5067938;28;21042;-64
2023/06/09 04:55:48;;;;;;;5.10;4.70;;;26.30;55.60;;;;;;5066792;28;20464;-65
2023/06/09 04:58:18;;;;;;;5.70;5.30;;;26.30;55.60;;;;;;5056068;28;20489;-65
2023/06/09 05:00:47;;;;;;;5.37;4.90;;;26.20;55.60;;;;;;5065918;28;20638;-64
2023/06/09 05:03:17;;;;;;;5.30;4.90;;;26.20;55.60;;;;;;5069709;28;20508;-64
2023/06/09 05:05:48;;;;;;;5.17;4.87;;;26.30;55.60;;;;;;5070446;28;20523;-64
2023/06/09 05:08:18;;;;;;;5.23;4.83;;;26.30;55.60;;;;;;5070829;28;20457;-66
2023/06/09 05:10:48;;;;;;;5.33;4.93;;;26.30;55.60;;;;;;5070394;28;20460;-65
2023/06/09 05:13:17;;;;;;;5.83;5.33;;;26.30;55.60;;;;;;5069674;28;20468;-65
2023/06/09 05:15:46;;;;;;;5.23;4.83;;;26.30;55.60;;;;;;5071239;28;20449;-64
2023/06/09 05:18:17;;;;;;;5.30;4.90;;;26.20;55.50;;;;;;5070765;28;21015;-64
2023/06/09 05:20:46;;;;;;;5.37;4.97;;;26.30;55.50;;;;;;5070371;28;20932;-64
2023/06/09 05:23:17;;;;;;;6.20;5.80;;;26.30;55.60;;;;;;5069848;28;20495;-65
2023/06/09 05:25:46;;;;;;;4.90;4.60;;;26.30;55.50;;;;;;5070458;28;20499;-64
2023/06/09 05:28:14;;;;;;;5.00;4.70;;;26.30;55.50;;;;;;5067718;28;20458;-65
2023/06/09 05:30:43;;;;;;;4.90;4.53;;;26.30;55.50;;;;;;5069734;28;20455;-64
2023/06/09 05:33:11;;;;;;;5.53;5.13;;;26.30;55.50;;;;;;5072176;28;20460;-64
2023/06/09 05:35:39;;;;;;;5.47;5.07;;;26.30;55.50;;;;;;5071199;28;20487;-64
2023/06/09 05:38:09;;;;;;;5.73;5.33;;;26.30;55.50;;;;;;5070439;28;20449;-65
2023/06/09 05:40:39;;;;;;;6.07;5.50;;;26.30;55.50;;;;;;5071605;28;20855;-64
2023/06/09 05:43:07;;;;;;;5.30;4.83;;;26.30;55.50;;;;;;5054063;28;21029;-65
2023/06/09 05:45:35;;;;;;;5.50;5.10;;;26.30;55.50;;;;;;5050862;28;20443;-64
2023/06/09 05:48:04;;;;;;;5.53;5.07;;;26.30;55.50;;;;;;5059469;28;20484;-64
2023/06/09 05:50:33;;;;;;;5.60;5.10;;;26.30;55.50;;;;;;5071228;28;20456;-65
2023/06/09 05:53:01;;;;;;;5.00;4.70;;;26.30;55.50;;;;;;5071314;28;20500;-65
2023/06/09 05:55:29;;;;;;;4.97;4.57;;;26.30;55.50;;;;;;5070308;28;20539;-65
2023/06/09 05:58:00;;;;;;;5.00;4.60;;;26.30;55.60;;;;;;5067418;28;20460;-65
2023/06/09 06:00:29;;;;;;;5.23;4.83;;;26.30;55.60;;;;;;5067716;28;20944;-65
2023/06/09 06:03:00;;;;;;;5.57;5.17;;;26.30;55.60;;;;;;5066555;28;20843;-65
2023/06/09 06:05:28;;;;;;;5.33;4.93;;;26.30;55.60;;;;;;5067046;28;20987;-64
2023/06/09 06:07:58;;;;;;;5.90;5.50;;;26.30;55.60;;;;;;5073105;28;20457;-64
2023/06/09 06:10:27;;;;;;;5.53;5.13;;;26.30;55.60;;;;;;5073869;28;20457;-64
2023/06/09 06:12:58;;;;;;;4.97;4.60;;;26.30;55.60;;;;;;5074559;28;20444;-64
2023/06/09 06:15:27;;;;;;;5.63;5.13;;;26.30;55.60;;;;;;5065383;28;20789;-64
2023/06/09 06:17:55;;;;;;;5.10;4.80;;;26.30;55.60;;;;;;5073801;28;20495;-64
2023/06/09 06:20:23;;;;;;;4.63;4.33;;;26.30;55.60;;;;;;5073870;28;20567;-64
2023/06/09 06:22:52;;;;;;;5.10;4.70;;;26.30;55.70;;;;;;5069740;28;20493;-64
2023/06/09 06:25:20;;;;;;;4.47;4.13;;;26.30;55.70;;;;;;5056719;28;20504;-65
2023/06/09 06:27:48;;;;;;;4.80;4.50;;;26.30;55.70;;;;;;5068886;28;20870;-64
2023/06/09 06:30:16;;;;;;;5.60;5.20;;;26.40;55.70;;;;;;5071381;28;20489;-64
2023/06/09 06:32:53;;;;;;;4.37;4.07;;;26.40;55.70;;;;;;5058521;28;20450;-64
2023/06/09 06:35:27;;;;;;;4.57;4.17;;;26.30;55.70;;;;;;5062775;28;20487;-64
2023/06/09 06:37:55;;;;;;;4.90;4.50;;;26.40;55.70;;;;;;5060279;28;20940;-64
2023/06/09 06:40:24;;;;;;;4.90;4.50;;;26.40;55.80;;;;;;5073188;28;20448;-64
2023/06/09 06:42:52;;;;;;;5.30;4.80;;;26.40;55.80;;;;;;5071792;28;20500;-64
2023/06/09 06:45:44;;;;;;;5.33;4.93;;;26.30;55.80;;;;;;5067990;28;20461;-64
2023/06/09 06:48:14;;;;;;;5.30;4.90;;;26.40;55.80;;;;;;5064203;28;20460;-66
2023/06/09 06:50:42;;;;;;;4.97;4.57;;;26.40;55.80;;;;;;5063029;28;20449;-64
2023/06/09 06:53:11;;;;;;;4.63;4.30;;;26.40;55.80;;;;;;5058286;28;20464;-64
2023/06/09 06:55:39;;;;;;;5.40;4.90;;;26.40;55.90;;;;;;5067935;28;20461;-64
2023/06/09 06:58:08;;;;;;;4.63;4.33;;;26.40;55.90;;;;;;5068559;28;20463;-65
2023/06/09 07:00:36;;;;;;;4.20;4.00;;;26.40;55.90;;;;;;5061814;28;20466;-65
2023/06/09 07:03:04;;;;;;;4.80;4.40;;;26.40;55.90;;;;;;5064272;28;20481;-64
2023/06/09 07:05:34;;;;;;;4.77;4.37;;;26.40;56.00;;;;;;5062854;28;20971;-64
2023/06/09 07:08:02;;;;;;;4.47;4.17;;;26.40;56.00;;;;;;5061521;28;20450;-65
2023/06/09 07:10:31;;;;;;;4.30;4.00;;;26.40;56.00;;;;;;5064677;28;21055;-64
2023/06/09 07:12:59;;;;;;;4.50;4.10;;;26.40;56.00;;;;;;5068275;28;21401;-64
2023/06/09 07:15:27;;;;;;;4.50;4.20;;;26.40;56.10;;;;;;5072079;28;20608;-64
2023/06/09 07:17:56;;;;;;;4.57;4.17;;;26.40;56.10;;;;;;5074134;28;20426;-64
2023/06/09 07:20:24;;;;;;;4.00;3.80;;;26.40;56.10;;;;;;5074159;28;20453;-64
2023/06/09 07:22:54;;;;;;;3.93;3.63;;;26.40;56.20;;;;;;5073798;28;20533;-64
2023/06/09 07:25:22;;;;;;;4.93;4.63;;;26.40;56.20;;;;;;5073618;28;20475;-65
2023/06/09 07:27:50;;;;;;;4.90;4.50;;;26.40;56.20;;;;;;5074385;28;20446;-64
2023/06/09 07:30:19;;;;;;;4.30;4.00;;;26.40;56.20;;;;;;5072504;28;20470;-65
2023/06/09 07:32:47;;;;;;;4.70;4.30;;;26.50;56.20;;;;;;5072026;28;20444;-64
2023/06/09 07:35:16;;;;;;;4.50;4.10;;;26.40;56.20;;;;;;5073893;28;20485;-64
2023/06/09 07:37:45;;;;;;;4.57;4.17;;;26.50;56.20;;;;;;5062511;28;20447;-65
2023/06/09 07:40:15;;;;;;;4.30;4.00;;;26.50;56.20;;;;;;5064583;28;20454;-64
2023/06/09 07:42:49;;;;;;;5.13;4.73;;;26.50;56.20;;;;;;5069694;28;20463;-65
2023/06/09 07:45:18;;;;;;;4.33;4.03;;;26.50;56.20;;;;;;5063755;28;20473;-64
2023/06/09 07:47:46;;;;;;;3.87;3.60;;;26.50;56.20;;;;;;5070425;28;20465;-65
2023/06/09 07:50:15;;;;;;;4.30;4.00;;;26.50;56.20;;;;;;5064994;28;20453;-64
2023/06/09 07:52:43;;;;;;;4.30;4.00;;;26.50;56.30;;;;;;5071280;28;20461;-65
2023/06/09 07:55:11;;;;;;;4.37;4.00;;;26.50;56.30;;;;;;5065129;28;20974;-65
2023/06/09 07:57:45;;;;;;;4.77;4.37;;;26.50;56.40;;;;;;5065831;28;20467;-65
2023/06/09 08:00:15;;;;;;;4.00;3.70;;;26.50;56.40;;;;;;5067617;28;20454;-65
2023/06/09 08:02:45;;;;;;;4.50;4.20;;;26.60;56.30;;;;;;5068776;28;20453;-66
2023/06/09 08:05:24;;;;;;;4.43;4.10;;;26.50;56.30;;;;;;5068781;28;20470;-65
2023/06/09 08:07:52;;;;;;;4.33;4.03;;;26.60;56.40;;;;;;5071872;28;21299;-65
2023/06/09 08:10:20;;;;;;;3.77;3.57;;;26.60;56.30;;;;;;5070812;28;20457;-65
2023/06/09 08:12:51;;;;;;;4.43;4.13;;;26.50;56.30;;;;;;5072231;28;20461;-65
2023/06/09 08:15:20;;;;;;;4.63;4.33;;;26.60;56.40;;;;;;5071446;28;20442;-65
2023/06/09 08:17:48;;;;;;;4.37;3.97;;;26.50;56.40;;;;;;5068229;28;20461;-65
2023/06/09 08:20:17;;;;;;;4.77;4.47;;;26.50;56.40;;;;;;5069783;28;20461;-65
2023/06/09 08:22:45;;;;;;;5.30;4.80;;;26.50;56.40;;;;;;5070428;28;20798;-65
2023/06/09 08:25:13;;;;;;;4.40;4.10;;;26.50;56.50;;;;;;5065980;28;20477;-65
2023/06/09 08:27:41;;;;;;;4.93;4.63;;;26.50;56.50;;;;;;5055822;28;20442;-65
2023/06/09 08:30:12;;;;;;;3.73;3.53;;;26.50;56.50;;;;;;5066267;28;20927;-65
2023/06/09 08:32:40;;;;;;;5.70;4.50;;;26.60;56.60;;;;;;5064275;28;20458;-66
2023/06/09 08:35:10;;;;;;;5.30;4.90;;;26.60;56.90;;;;;;5065602;28;20490;-68
2023/06/09 08:37:38;;;;;;;82.73;53.63;;;26.60;57.20;;;;;;5066477;28;20457;-67
2023/06/09 08:40:09;;;;;;;112.10;61.07;;;26.60;57.50;;;;;;5064407;28;20455;-67
2023/06/09 08:42:39;;;;;;;47.97;31.70;;;26.60;57.60;;;;;;5067736;28;20456;-67
2023/06/09 08:45:09;;;;;;;51.80;33.70;;;26.70;57.70;;;;;;5067766;28;20529;-68
2023/06/09 08:47:50;;;;;;;68.07;41.50;;;26.70;57.80;;;;;;5063404;28;20458;-67
2023/06/09 08:50:30;;;;;;;96.30;58.43;;;26.70;57.90;;;;;;5067317;28;20464;-66
2023/06/09 08:52:58;;;;;;;41.63;27.23;;;26.70;58.00;;;;;;5067494;28;20527;-67
2023/06/09 08:55:27;;;;;;;155.03;90.83;;;26.80;57.90;;;;;;5071102;28;20472;-68
2023/06/09 08:57:57;;;;;;;78.57;51.03;;;26.80;58.20;;;;;;5070897;28;20457;-66
2023/06/09 09:00:25;;;;;;;56.10;36.33;;;26.80;58.20;;;;;;5061844;28;20458;-66
2023/06/09 09:02:56;;;;;;;46.97;29.60;;;26.80;57.90;;;;;;5068307;28;20464;-67
2023/06/09 09:05:24;;;;;;;33.00;24.70;;;26.80;57.80;;;;;;5065909;28;20501;-66
2023/06/09 09:07:52;;;;;;;30.73;20.60;;;26.80;57.70;;;;;;5069760;28;20989;-66
2023/06/09 09:10:21;;;;;;;24.60;17.07;;;26.80;57.70;;;;;;5057731;28;20514;-66
2023/06/09 09:12:50;;;;;;;24.30;14.70;;;26.90;57.70;;;;;;5063463;28;20458;-67
2023/06/09 09:15:19;;;;;;;21.90;14.80;;;26.90;57.60;;;;;;5069958;28;21168;-67
2023/06/09 09:17:48;;;;;;;19.30;12.93;;;26.90;57.60;;;;;;5069462;28;20950;-68
2023/06/09 09:20:19;;;;;;;188.30;110.80;;;26.90;57.90;;;;;;5071744;28;20455;-66
2023/06/09 09:22:49;;;;;;;81.83;54.33;;;26.90;58.00;;;;;;5070538;28;20460;-67
2023/06/09 09:25:25;;;;;;;127.20;75.93;;;26.90;58.30;;;;;;5059020;28;20491;-68
2023/06/09 09:28:01;;;;;;;199.00;107.13;;;26.90;58.40;;;;;;5060785;28;20574;-67
2023/06/09 09:30:47;;;;;;;38.13;24.33;;;26.90;58.50;;;;;;5060445;28;20570;-66
2023/06/09 09:33:18;;;;;;;30.00;19.47;;;26.90;58.20;;;;;;5052689;28;20454;-66
2023/06/09 09:35:50;;;;;;;25.67;17.90;;;27.00;58.00;;;;;;5057408;28;20510;-67
2023/06/09 09:38:20;;;;;;;22.40;15.23;;;27.00;57.70;;;;;;5063549;28;20490;-66
2023/06/09 09:40:50;;;;;;;24.57;17.13;;;27.00;57.90;;;;;;5058246;28;20457;-67
2023/06/09 09:43:19;;;;;;;14.63;11.10;;;27.00;57.70;;;;;;5056158;28;20463;-68
2023/06/09 09:45:50;;;;;;;14.53;11.33;;;27.00;57.60;;;;;;5060412;28;20473;-68
2023/06/09 09:48:21;;;;;;;19.00;11.73;;;27.00;57.60;;;;;;5062663;28;20508;-66
2023/06/09 09:50:52;;;;;;;12.50;9.67;;;27.00;57.60;;;;;;5053963;28;20479;-65
2023/06/09 09:53:23;;;;;;;11.43;8.30;;;27.00;57.70;;;;;;5065213;28;20473;-66
2023/06/09 09:55:53;;;;;;;8.83;7.23;;;27.00;57.70;;;;;;5064777;28;20460;-67
2023/06/09 09:58:29;;;;;;;12.43;6.97;;;27.00;57.60;;;;;;5063591;28;20861;-65
2023/06/09 10:01:00;;;;;;;9.93;7.00;;;27.00;57.60;;;;;;5060213;28;20459;-66
2023/06/09 10:03:29;;;;;;;6.63;5.93;;;27.10;57.50;;;;;;5061447;28;21004;-64
2023/06/09 10:06:01;;;;;;;7.30;6.60;;;27.10;57.50;;;;;;5063912;28;20578;-64
2023/06/09 10:08:31;;;;;;;7.03;6.40;;;27.10;57.40;;;;;;5063200;28;20957;-64
2023/06/09 10:11:00;;;;;;;5.17;4.77;;;27.10;57.10;;;;;;5064722;28;20451;-64
2023/06/09 10:13:29;;;;;;;8.30;5.70;;;27.10;57.10;;;;;;5066394;28;20811;-65
2023/06/09 10:15:59;;;;;;;5.90;5.40;;;27.10;57.20;;;;;;5065392;28;20474;-65
2023/06/09 10:18:28;;;;;;;6.23;5.50;;;27.10;57.10;;;;;;5065903;28;20465;-64
2023/06/09 10:20:57;;;;;;;5.33;4.90;;;27.10;57.10;;;;;;5068048;28;20820;-64
2023/06/09 10:23:27;;;;;;;5.47;4.97;;;27.20;57.10;;;;;;5069258;28;20506;-65
2023/06/09 10:25:57;;;;;;;5.50;5.10;;;27.20;57.10;;;;;;5068028;28;20470;-64
2023/06/09 10:28:25;;;;;;;6.60;5.00;;;27.20;57.10;;;;;;5068570;28;20471;-65
2023/06/09 10:30:55;;;;;;;4.80;4.40;;;27.20;57.10;;;;;;5067986;28;20539;-65
2023/06/09 10:33:29;;;;;;;6.50;4.30;;;27.20;57.00;;;;;;5067275;28;20467;-63
2023/06/09 10:35:59;;;;;;;4.90;4.50;;;27.20;56.90;;;;;;5066829;28;20481;-65
2023/06/09 10:38:30;;;;;;;6.33;4.90;;;27.20;56.80;;;;;;5068430;28;20475;-64
2023/06/09 10:41:11;;;;;;;5.30;4.90;;;27.30;56.90;;;;;;5064446;28;20456;-65
2023/06/09 10:44:02;;;;;;;4.90;4.60;;;27.30;56.90;;;;;;5065412;28;20596;-64
2023/06/09 10:46:42;;;;;;;5.50;5.10;;;27.30;56.90;;;;;;5067036;28;20476;-63
2023/06/09 10:49:39;;;;;;;5.90;5.50;;;27.30;56.80;;;;;;5063533;28;20464;-64
2023/06/09 10:52:10;;;;;;;4.73;4.33;;;27.30;56.90;;;;;;5067763;28;20448;-63
2023/06/09 10:54:39;;;;;;;5.27;4.87;;;27.30;56.80;;;;;;5071193;28;20454;-63
2023/06/09 10:57:37;;;;;;;5.40;5.00;;;27.40;56.80;;;;;;5067419;28;20935;-63
2023/06/09 11:00:16;;;;;;;4.73;4.33;;;27.40;56.60;;;;;;5070514;28;20448;-64
2023/06/09 11:02:51;;;;;;;6.10;5.60;;;27.40;56.70;;;;;;5070595;28;20548;-64
2023/06/09 11:05:21;;;;;;;4.53;4.23;;;27.40;56.80;;;;;;5071782;28;20839;-63
2023/06/09 11:07:51;;;;;;;4.93;4.57;;;27.40;56.60;;;;;;5071175;28;20457;-63
2023/06/09 11:10:29;;;;;;;4.37;4.07;;;27.30;56.40;;;;;;5071331;28;20480;-63
2023/06/09 11:12:59;;;;;;;5.40;5.00;;;27.30;56.40;;;;;;5072825;28;20453;-63
2023/06/09 11:15:57;;;;;;;5.57;5.17;;;27.30;56.40;;;;;;5071322;28;20499;-63
2023/06/09 11:18:26;;;;;;;5.10;4.70;;;27.30;56.40;;;;;;5037912;28;20465;-63
2023/06/09 11:21:20;;;;;;;4.40;4.00;;;27.20;56.50;;;;;;5073087;28;20457;-64
2023/06/09 11:24:05;;;;;;;5.33;4.93;;;27.20;56.60;;;;;;5070809;28;20552;-64
2023/06/09 11:26:37;;;;;;;4.47;4.17;;;27.20;56.60;;;;;;5072613;28;20468;-64
2023/06/09 11:29:21;;;;;;;5.00;4.63;;;27.20;56.60;;;;;;5070623;28;20446;-63
2023/06/09 11:31:50;;;;;;;5.33;4.97;;;27.20;56.60;;;;;;5073434;28;20455;-63
2023/06/09 11:34:49;;;;;;;5.00;4.60;;;27.20;56.70;;;;;;5071510;28;20574;-63
2023/06/09 11:37:20;;;;;;;6.83;6.20;;;27.20;56.70;;;;;;5046493;28;20979;-63
2023/06/09 11:39:49;;;;;;;6.53;5.93;;;27.20;56.70;;;;;;5071650;28;20450;-63
2023/06/09 11:42:19;;;;;;;6.90;6.40;;;27.20;56.80;;;;;;5066996;28;20455;-63
2023/06/09 11:44:48;;;;;;;8.20;7.20;;;27.20;56.80;;;;;;5067002;28;20945;-64
2023/06/09 11:47:27;;;;;;;5.80;5.33;;;27.20;56.70;;;;;;5070739;28;20468;-63
2023/06/09 11:50:06;;;;;;;7.73;6.60;;;27.20;56.80;;;;;;5068722;28;20551;-64
2023/06/09 11:52:35;;;;;;;6.30;5.73;;;27.20;56.80;;;;;;5069786;28;20501;-63
2023/06/09 11:55:05;;;;;;;6.60;5.70;;;27.20;56.60;;;;;;5072553;28;20457;-64
2023/06/09 11:57:36;;;;;;;10.43;6.30;;;27.30;56.60;;;;;;5065065;28;20559;-64
2023/06/09 12:00:12;;;;;;;6.90;6.20;;;27.30;56.60;;;;;;5067260;28;20457;-63
2023/06/09 12:02:44;;;;;;;8.73;5.40;;;27.30;56.60;;;;;;5061027;28;20450;-63
2023/06/09 12:05:13;;;;;;;7.50;6.80;;;27.30;56.50;;;;;;5068761;28;20492;-64
2023/06/09 12:07:44;;;;;;;6.10;5.60;;;27.40;56.50;;;;;;5068912;28;20529;-64
2023/06/09 12:10:13;;;;;;;6.07;5.50;;;27.40;56.30;;;;;;5069272;28;20501;-64
2023/06/09 12:12:47;;;;;;;5.97;5.37;;;27.50;56.30;;;;;;5065410;28;20461;-63
2023/06/09 12:15:18;;;;;;;6.30;5.70;;;27.60;56.30;;;;;;5066909;28;20456;-64
2023/06/09 12:17:50;;;;;;;6.93;5.43;;;27.80;56.00;;;;;;5059141;28;20464;-64
2023/06/09 12:20:24;;;;;;;6.17;5.57;;;28.00;55.60;;;;;;5069125;28;20918;-64
2023/06/09 12:22:54;;;;;;;5.37;4.87;;;28.20;55.30;;;;;;5064581;28;20468;-64
2023/06/09 12:25:26;;;;;;;5.83;5.23;;;28.30;55.00;;;;;;5070420;28;20970;-64
2023/06/09 12:27:56;;;;;;;5.60;5.13;;;28.40;54.80;;;;;;5070268;28;20480;-64
2023/06/09 12:30:36;;;;;;;5.47;5.00;;;28.50;54.50;;;;;;5068645;28;20453;-64
2023/06/09 12:33:07;;;;;;;5.83;5.43;;;28.60;54.40;;;;;;5063161;28;20479;-64
2023/06/09 12:35:40;;;;;;;6.13;5.30;;;28.60;54.30;;;;;;5067348;28;20483;-64
2023/06/09 12:38:13;;;;;;;6.93;5.00;;;28.50;54.30;;;;;;5076404;28;20460;-64
2023/06/09 12:40:50;;;;;;;5.37;4.97;;;28.50;54.50;;;;;;5070822;28;20470;-64
2023/06/09 12:43:20;;;;;;;5.20;4.80;;;28.50;54.50;;;;;;5054549;28;20518;-65
2023/06/09 12:45:50;;;;;;;6.40;5.20;;;28.50;54.50;;;;;;5057632;28;20528;-65
2023/06/09 12:48:18;;;;;;;5.33;4.47;;;28.50;54.70;;;;;;5063582;28;20506;-64
2023/06/09 12:50:52;;;;;;;5.10;4.50;;;28.50;54.70;;;;;;5065901;28;20465;-64
2023/06/09 12:53:20;;;;;;;5.47;4.90;;;28.50;54.80;;;;;;5066279;28;20460;-64
2023/06/09 12:55:49;;;;;;;5.23;4.83;;;28.50;54.90;;;;;;5057828;28;20488;-64
2023/06/09 12:58:21;;;;;;;4.30;3.90;;;28.40;54.80;;;;;;5062061;28;20910;-64
2023/06/09 13:00:49;;;;;;;4.50;4.20;;;28.40;55.00;;;;;;5063907;28;20544;-64
2023/06/09 13:03:19;;;;;;;4.80;4.40;;;28.40;55.10;;;;;;5068877;28;20527;-64
2023/06/09 13:05:47;;;;;;;5.00;4.53;;;28.40;54.70;;;;;;5065372;28;20494;-64